Blair, Illinois
Current Conditions -  °F | °C
As of 12:15 AM on Monday 24 Nov 2014 (Local Time) from KFOA Reporting Station
Scattered Clouds Scattered Clouds  
Wind Chill: 55°   Ceiling: Unl
Heat Index: 55°   Visibility: 10mi
Dew Point: 54°   Wind: 10mph
Humidity: 97%   Direction: 200°SSW
Pressure: 29.25"   Gusts: NA
Location:  38.8267°N, 88.5024°W
Report Text: KFOA 240615Z AUTO 20009KT 10SM SCT006 13/12 A2925 RMK AO2 LTG DSNT SW T01280124
Loading
Personal Weather Stations






























Interactive Weather Map New forecast layout! Learn more

10-Day Weather Forecast

Advertisements
Track Severe Weather on mobile